Time;durP1;ratioP1;P1;durP2;ratioP2;P2;SDS_P1;SDS_P2;PMS_P1;PMS_P2;Temp;Humidity;BMP_temperature;BMP_pressure;BME280_temperature;BME280_humidity;BME280_pressure;Samples;Min_cycle;Max_cycle;Signal;HPM_P1;HPM_P2
2023/03/18 00:01:02;;;;;;;;;;;;;;;2.88;51.54;100163.17;134338;1303;22425;-75
2023/03/18 00:04:03;;;;;;;;;;;;;;;2.84;51.63;100163.11;134324;1296;22435;-75
2023/03/18 00:07:03;;;;;;;;;;;;;;;2.81;51.50;100156.75;134320;1297;22456;-74
2023/03/18 00:10:15;;;;;;;;;;;;;;;2.77;51.57;100154.42;134342;1296;24843;-75
2023/03/18 00:13:17;;;;;;;;;;;;;;;2.71;51.89;100151.73;134327;1298;22456;-75
2023/03/18 00:16:18;;;;;;;;;;;;;;;2.65;51.81;100146.56;134384;1296;22448;-75
2023/03/18 00:19:19;;;;;;;;;;;;;;;2.61;51.87;100144.25;134350;1296;22539;-75
2023/03/18 00:22:20;;;;;;;;;;;;;;;2.58;52.08;100146.04;134332;1296;23293;-75
2023/03/18 00:25:39;;;;;;;;;;;;;;;2.56;52.23;100144.48;134327;1297;22418;-75
2023/03/18 00:28:39;;;;;;;;;;;;;;;2.53;52.11;100140.29;134339;1297;22410;-75
2023/03/18 00:31:43;;;;;;;;;;;;;;;2.50;52.19;100133.05;134343;1297;23148;-75
2023/03/18 00:34:44;;;;;;;;;;;;;;;2.46;52.49;100133.51;134303;1298;22513;-75
2023/03/18 00:37:47;;;;;;;;;;;;;;;2.42;52.60;100137.50;134347;1296;22699;-75
2023/03/18 00:41:09;;;;;;;;;;;;;;;2.37;52.62;100134.38;134319;1301;23159;-75
2023/03/18 00:44:13;;;;;;;;;;;;;;;2.33;52.55;100129.80;134315;1303;22459;-75
2023/03/18 00:47:16;;;;;;;;;;;;;;;2.29;52.74;100130.23;134108;1298;22476;-74
2023/03/18 00:50:17;;;;;;;;;;;;;;;2.28;52.75;100126.33;134128;1298;23644;-75
2023/03/18 00:53:22;;;;;;;;;;;;;;;2.24;52.81;100125.34;134327;1297;22474;-75
2023/03/18 00:56:24;;;;;;;;;;;;;;;2.23;52.72;100129.40;134345;1296;22442;-75
2023/03/18 00:59:28;;;;;;;;;;;;;;;2.24;52.68;100128.16;134079;1298;22632;-75
2023/03/18 01:02:29;;;;;;;;;;;;;;;2.23;52.87;100133.95;134159;1297;22414;-75
2023/03/18 01:05:34;;;;;;;;;;;;;;;2.23;52.89;100140.59;134309;1297;22451;-75
2023/03/18 01:08:37;;;;;;;;;;;;;;;2.21;52.85;100136.02;134173;1298;22487;-75
2023/03/18 01:11:37;;;;;;;;;;;;;;;2.20;52.87;100134.35;134401;1296;22435;-75
2023/03/18 01:14:39;;;;;;;;;;;;;;;2.18;53.03;100129.62;134059;1297;22456;-75
2023/03/18 01:17:39;;;;;;;;;;;;;;;2.17;52.89;100130.09;134361;1296;23281;-75
2023/03/18 01:20:40;;;;;;;;;;;;;;;2.12;53.06;100131.98;134322;1297;22460;-75
2023/03/18 01:23:41;;;;;;;;;;;;;;;2.07;53.10;100130.61;134310;1297;22456;-75
2023/03/18 01:26:41;;;;;;;;;;;;;;;2.06;53.20;100134.03;134069;1298;22437;-75
2023/03/18 01:29:45;;;;;;;;;;;;;;;2.05;53.20;100133.04;134327;1296;22444;-75
2023/03/18 01:32:49;;;;;;;;;;;;;;;2.03;53.22;100136.51;134112;1298;22467;-75
2023/03/18 01:35:54;;;;;;;;;;;;;;;2.01;53.20;100133.98;134049;1300;22492;-75
2023/03/18 01:38:59;;;;;;;;;;;;;;;1.99;53.13;100131.90;134053;1297;22453;-75
2023/03/18 01:41:59;;;;;;;;;;;;;;;1.97;53.23;100132.39;134214;1301;22476;-75
2023/03/18 01:45:12;;;;;;;;;;;;;;;1.94;53.39;100132.09;134113;1298;23242;-75
2023/03/18 01:48:16;;;;;;;;;;;;;;;1.92;53.43;100137.28;134017;1300;22461;-75
2023/03/18 01:51:17;;;;;;;;;;;;;;;1.90;53.43;100132.37;134103;1297;22517;-75
2023/03/18 01:54:17;;;;;;;;;;;;;;;1.84;53.56;100133.52;133990;1291;23200;-75
2023/03/18 01:57:40;;;;;;;;;;;;;;;1.76;53.58;100134.77;134134;1297;22553;-75
2023/03/18 02:00:43;;;;;;;;;;;;;;;1.68;53.74;100140.25;134179;1297;23182;-75
2023/03/18 02:03:44;;;;;;;;;;;;;;;1.60;53.96;100139.78;134177;1301;23116;-75
2023/03/18 02:06:47;;;;;;;;;;;;;;;1.49;54.12;100139.00;134185;1297;22446;-75
2023/03/18 02:09:49;;;;;;;;;;;;;;;1.41;54.22;100139.36;134130;1298;22475;-75
2023/03/18 02:12:59;;;;;;;;;;;;;;;1.34;54.48;100138.61;134217;1296;22459;-75
2023/03/18 02:16:16;;;;;;;;;;;;;;;;;;;;;
2023/03/18 02:19:36;;;;;;;;;;;;;;;1.20;54.80;100131.06;134120;1298;22458;-75
2023/03/18 02:22:46;;;;;;;;;;;;;;;1.17;54.88;100137.05;134032;1298;22467;-75
2023/03/18 02:25:51;;;;;;;;;;;;;;;1.15;54.89;100132.98;134201;1297;22523;-75
2023/03/18 02:28:55;;;;;;;;;;;;;;;1.13;55.03;100132.92;134017;1298;22446;-75
2023/03/18 02:32:13;;;;;;;;;;;;;;;1.09;55.24;100131.99;133904;1294;158396;-75
2023/03/18 02:35:14;;;;;;;;;;;;;;;1.00;55.21;100132.09;133980;1297;23302;-75
2023/03/18 02:38:15;;;;;;;;;;;;;;;1.00;55.19;100129.66;134135;1298;22416;-75
2023/03/18 02:41:18;;;;;;;;;;;;;;;1.02;55.65;100132.45;134321;1295;22447;-75
2023/03/18 02:44:20;;;;;;;;;;;;;;;1.05;55.66;100131.90;134075;1297;22435;-75
2023/03/18 02:47:42;;;;;;;;;;;;;;;1.07;55.75;100132.51;134285;1297;23352;-75
2023/03/18 02:50:56;;;;;;;;;;;;;;;;;;;;;
2023/03/18 02:54:09;;;;;;;;;;;;;;;1.00;56.00;100137.64;134099;1299;22441;-75
2023/03/18 02:57:09;;;;;;;;;;;;;;;1.00;56.05;100136.08;134352;1297;22450;-75
2023/03/18 03:00:12;;;;;;;;;;;;;;;1.01;56.09;100142.30;134108;1297;22442;-75
2023/03/18 03:03:14;;;;;;;;;;;;;;;1.01;56.22;100141.63;134134;1297;22444;-75
2023/03/18 03:06:14;;;;;;;;;;;;;;;1.01;56.42;100139.35;134328;1295;22437;-75
2023/03/18 03:09:15;;;;;;;;;;;;;;;0.96;56.59;100136.54;134308;1301;23211;-75
2023/03/18 03:12:17;;;;;;;;;;;;;;;0.93;56.46;100134.13;134067;1298;22560;-75
2023/03/18 03:15:23;;;;;;;;;;;;;;;0.93;56.63;100136.80;134109;1298;22437;-75
2023/03/18 03:18:29;;;;;;;;;;;;;;;0.96;56.60;100142.30;134098;1301;23320;-75
2023/03/18 03:21:36;;;;;;;;;;;;;;;1.01;56.60;100141.93;134111;1304;22443;-75
2023/03/18 03:24:37;;;;;;;;;;;;;;;1.07;56.65;100136.34;134301;1297;22436;-75
2023/03/18 03:27:38;;;;;;;;;;;;;;;1.10;56.61;100134.93;134297;1304;22443;-75
2023/03/18 03:30:38;;;;;;;;;;;;;;;1.12;56.53;100135.06;134217;1297;22442;-75
2023/03/18 03:33:40;;;;;;;;;;;;;;;1.16;56.51;100133.79;134287;1297;22467;-75
2023/03/18 03:36:41;;;;;;;;;;;;;;;1.20;56.65;100135.94;134322;1297;22472;-75
2023/03/18 03:39:44;;;;;;;;;;;;;;;1.25;56.70;100133.85;134104;1300;22463;-75
2023/03/18 03:42:58;;;;;;;;;;;;;;;;;;;;;
2023/03/18 03:45:59;;;;;;;;;;;;;;;1.31;56.81;100141.09;134264;1297;24278;-75
2023/03/18 03:49:07;;;;;;;;;;;;;;;1.33;56.57;100140.25;134148;1298;24894;-75
2023/03/18 03:52:08;;;;;;;;;;;;;;;1.36;56.60;100143.38;134299;1295;22531;-75
2023/03/18 03:55:11;;;;;;;;;;;;;;;1.38;56.70;100146.88;134097;1297;22451;-75
2023/03/18 03:58:12;;;;;;;;;;;;;;;1.41;56.51;100145.67;134211;1297;23258;-75
2023/03/18 04:01:13;;;;;;;;;;;;;;;1.44;56.65;100146.67;134213;1298;22463;-75
2023/03/18 04:04:15;;;;;;;;;;;;;;;1.47;56.63;100145.39;134110;1297;23212;-75
2023/03/18 04:07:17;;;;;;;;;;;;;;;1.51;56.66;100147.02;134140;1295;22454;-75
2023/03/18 04:10:38;;;;;;;;;;;;;;;1.54;56.55;100141.21;134215;1298;23086;-75
2023/03/18 04:13:40;;;;;;;;;;;;;;;1.57;56.46;100143.14;134096;1299;22503;-75
2023/03/18 04:16:41;;;;;;;;;;;;;;;1.58;56.72;100143.73;134090;1297;22440;-75
2023/03/18 04:19:42;;;;;;;;;;;;;;;1.61;56.60;100138.52;134180;1297;23247;-75
2023/03/18 04:22:46;;;;;;;;;;;;;;;1.63;56.76;100144.94;134107;1298;22471;-75
2023/03/18 04:25:47;;;;;;;;;;;;;;;1.65;56.88;100147.23;134121;1298;22450;-75
2023/03/18 04:28:51;;;;;;;;;;;;;;;1.67;56.78;100149.89;134102;1304;23238;-75
2023/03/18 04:31:55;;;;;;;;;;;;;;;1.71;56.93;100155.52;134299;1297;22440;-75
2023/03/18 04:35:17;;;;;;;;;;;;;;;1.74;56.67;100157.95;134131;1297;22502;-75
2023/03/18 04:38:29;;;;;;;;;;;;;;;1.82;56.31;100160.21;134155;1297;22465;-75
2023/03/18 04:42:03;;;;;;;;;;;;;;;1.88;56.27;100157.14;134121;1296;22467;-75
2023/03/18 04:45:06;;;;;;;;;;;;;;;1.93;56.35;100164.14;134193;1298;22488;-75
2023/03/18 04:48:07;;;;;;;;;;;;;;;1.94;56.40;100161.20;134130;1298;23434;-75
2023/03/18 04:51:12;;;;;;;;;;;;;;;1.96;56.31;100163.73;134078;1301;22459;-75
2023/03/18 04:54:18;;;;;;;;;;;;;;;1.97;56.32;100163.95;134281;1298;23212;-75
2023/03/18 04:57:18;;;;;;;;;;;;;;;1.99;56.42;100164.18;134162;1298;22448;-75
2023/03/18 05:00:24;;;;;;;;;;;;;;;2.00;56.45;100162.04;134042;1300;22458;-75
2023/03/18 05:03:29;;;;;;;;;;;;;;;1.99;56.52;100161.54;134111;1297;22466;-75
2023/03/18 05:06:34;;;;;;;;;;;;;;;2.01;56.33;100163.48;134164;1295;22478;-75
2023/03/18 05:09:42;;;;;;;;;;;;;;;2.06;56.24;100164.19;134091;1298;22461;-75
2023/03/18 05:12:43;;;;;;;;;;;;;;;2.13;56.20;100164.95;134102;1297;22484;-75
2023/03/18 05:15:45;;;;;;;;;;;;;;;2.19;56.16;100163.45;134083;1297;22436;-75
2023/03/18 05:18:45;;;;;;;;;;;;;;;2.24;56.16;100162.35;134165;1296;22453;-75
2023/03/18 05:21:46;;;;;;;;;;;;;;;2.36;55.84;100165.14;134122;1297;22482;-75
2023/03/18 05:24:48;;;;;;;;;;;;;;;2.64;55.80;100168.85;134286;1298;22490;-75
2023/03/18 05:27:49;;;;;;;;;;;;;;;2.89;55.32;100168.33;134084;1298;22564;-75
2023/03/18 05:31:04;;;;;;;;;;;;;;;2.97;54.50;100173.17;134093;1298;22457;-75
2023/03/18 05:34:09;;;;;;;;;;;;;;;2.98;54.66;100173.12;134050;1298;23125;-75
2023/03/18 05:37:11;;;;;;;;;;;;;;;3.00;54.39;100172.96;134120;1298;23207;-75
2023/03/18 05:40:17;;;;;;;;;;;;;;;3.02;54.52;100169.30;134087;1298;22568;-75
2023/03/18 05:43:28;;;;;;;;;;;;;;;3.03;54.63;100169.42;134116;1298;22515;-75
2023/03/18 05:46:30;;;;;;;;;;;;;;;3.01;54.43;100168.31;134273;1297;23177;-75
2023/03/18 05:49:47;;;;;;;;;;;;;;;3.02;54.47;100173.11;134171;1297;22498;-75
2023/03/18 05:52:55;;;;;;;;;;;;;;;3.04;54.40;100177.14;134201;1297;23504;-75
2023/03/18 05:55:56;;;;;;;;;;;;;;;3.08;54.37;100174.27;133919;1298;23204;-75
2023/03/18 05:58:58;;;;;;;;;;;;;;;3.10;54.58;100177.80;134048;1297;22572;-74
2023/03/18 06:02:18;;;;;;;;;;;;;;;3.13;54.47;100175.94;134243;1297;22439;-75
2023/03/18 06:05:20;;;;;;;;;;;;;;;3.18;54.29;100175.80;134200;1298;22557;-75
2023/03/18 06:08:21;;;;;;;;;;;;;;;3.22;53.84;100174.23;134296;1298;22433;-75
2023/03/18 06:11:23;;;;;;;;;;;;;;;3.30;54.16;100171.71;134285;1297;22452;-75
2023/03/18 06:14:28;;;;;;;;;;;;;;;3.40;53.94;100170.21;134252;1298;22461;-74
2023/03/18 06:17:29;;;;;;;;;;;;;;;3.52;53.73;100178.33;134088;1299;22459;-75
2023/03/18 06:20:30;;;;;;;;;;;;;;;3.64;53.78;100178.33;134281;1298;22451;-75
2023/03/18 06:23:32;;;;;;;;;;;;;;;3.75;53.44;100178.65;134285;1297;22451;-75
2023/03/18 06:26:34;;;;;;;;;;;;;;;3.85;53.51;100177.52;134160;1295;22530;-74
2023/03/18 06:29:35;;;;;;;;;;;;;;;3.97;53.50;100178.67;134104;1297;22462;-75
2023/03/18 06:32:42;;;;;;;;;;;;;;;4.08;53.20;100187.23;134089;1298;22444;-74
2023/03/18 06:35:43;;;;;;;;;;;;;;;4.15;52.95;100182.67;133975;1301;22539;-74
2023/03/18 06:38:44;;;;;;;;;;;;;;;4.17;53.00;100181.79;134241;1298;22439;-74
2023/03/18 06:41:45;;;;;;;;;;;;;;;4.21;52.93;100176.77;134115;1297;22485;-74
2023/03/18 06:45:22;;;;;;;;;;;;;;;4.25;53.01;100182.17;133355;1304;22485;-74
2023/03/18 06:48:27;;;;;;;;;;;;;;;4.28;52.54;100183.52;134265;1298;22460;-75
2023/03/18 06:51:29;;;;;;;;;;;;;;;4.33;52.91;100182.77;134082;1298;22469;-75
2023/03/18 06:54:31;;;;;;;;;;;;;;;4.40;52.91;100184.27;134058;1297;22539;-74
2023/03/18 06:57:34;;;;;;;;;;;;;;;4.49;52.58;100186.02;134025;1298;22465;-74
2023/03/18 07:00:35;;;;;;;;;;;;;;;4.57;52.59;100180.79;134212;1296;23309;-75
2023/03/18 07:03:37;;;;;;;;;;;;;;;4.67;52.59;100182.25;134164;1298;22456;-74
2023/03/18 07:06:42;;;;;;;;;;;;;;;4.79;52.49;100191.59;133988;1301;23156;-76
2023/03/18 07:09:43;;;;;;;;;;;;;;;4.95;52.18;100192.32;134061;1298;22577;-73
2023/03/18 07:12:46;;;;;;;;;;;;;;;5.15;52.05;100194.41;134074;1299;22475;-73
2023/03/18 07:15:46;;;;;;;;;;;;;;;5.35;51.82;100196.54;134240;1298;22456;-73
2023/03/18 07:18:47;;;;;;;;;;;;;;;5.58;51.42;100201.53;134135;1298;22498;-73
2023/03/18 07:21:50;;;;;;;;;;;;;;;5.81;51.24;100201.09;134116;1297;22495;-74
2023/03/18 07:24:51;;;;;;;;;;;;;;;6.09;51.61;100201.85;134109;1297;22453;-72
2023/03/18 07:27:52;;;;;;;;;;;;;;;6.37;50.94;100198.81;134071;1298;23568;-71
2023/03/18 07:30:53;;;;;;;;;;;;;;;6.64;50.87;100204.84;134266;1301;22461;-71
2023/03/18 07:33:54;;;;;;;;;;;;;;;6.90;50.33;100198.27;134240;1298;22467;-71
2023/03/18 07:36:55;;;;;;;;;;;;;;;7.11;50.43;100196.88;134246;1298;22476;-71
2023/03/18 07:39:56;;;;;;;;;;;;;;;7.30;49.80;100201.75;134277;1301;22394;-72
2023/03/18 07:42:56;;;;;;;;;;;;;;;7.44;48.89;100199.73;134264;1297;22464;-75
2023/03/18 07:45:57;;;;;;;;;;;;;;;7.55;49.58;100195.21;134210;1298;22464;-74
2023/03/18 07:49:00;;;;;;;;;;;;;;;7.79;48.87;100193.27;134217;1298;22462;-77
2023/03/18 07:52:01;;;;;;;;;;;;;;;7.88;47.75;100190.66;134202;1298;22470;-78
2023/03/18 07:55:02;;;;;;;;;;;;;;;7.94;47.91;100196.09;134201;1298;23144;-77
2023/03/18 07:58:03;;;;;;;;;;;;;;;8.02;46.30;100190.46;134216;1298;22459;-78
2023/03/18 08:01:04;;;;;;;;;;;;;;;8.10;46.39;100193.59;134251;1298;22445;-81
2023/03/18 08:04:05;;;;;;;;;;;;;;;8.19;45.96;100191.33;134269;1298;22483;-77
2023/03/18 08:07:05;;;;;;;;;;;;;;;8.31;45.42;100198.44;134261;1298;23222;-78
2023/03/18 08:10:07;;;;;;;;;;;;;;;8.40;44.72;100203.41;134278;1298;23215;-76
2023/03/18 08:13:08;;;;;;;;;;;;;;;8.54;45.00;100204.50;134128;1298;22521;-80
2023/03/18 08:16:09;;;;;;;;;;;;;;;8.64;43.76;100199.86;134191;1286;22501;-76
2023/03/18 08:19:09;;;;;;;;;;;;;;;8.79;44.89;100203.06;134136;1302;22459;-78
2023/03/18 08:22:10;;;;;;;;;;;;;;;9.06;43.67;100206.54;134264;1299;22401;-78
2023/03/18 08:25:11;;;;;;;;;;;;;;;9.23;43.16;100206.76;134291;1304;23098;-79
2023/03/18 08:28:14;;;;;;;;;;;;;;;9.34;42.67;100205.52;134237;1298;22470;-80
2023/03/18 08:31:14;;;;;;;;;;;;;;;9.52;43.36;100207.31;134261;1298;22432;-79
2023/03/18 08:34:15;;;;;;;;;;;;;;;9.72;42.75;100204.23;134266;1298;22459;-78
2023/03/18 08:37:16;;;;;;;;;;;;;;;9.89;41.91;100206.48;134316;1298;22521;-74
2023/03/18 08:40:18;;;;;;;;;;;;;;;9.97;41.32;100208.30;134274;1297;22439;-74
2023/03/18 08:43:22;;;;;;;;;;;;;;;9.91;40.25;100205.08;134255;1299;22454;-75
2023/03/18 08:46:22;;;;;;;;;;;;;;;9.97;40.22;100208.90;134067;1299;22431;-76
2023/03/18 08:49:24;;;;;;;;;;;;;;;10.02;39.30;100209.88;134198;1298;22475;-76
2023/03/18 08:52:24;;;;;;;;;;;;;;;10.09;39.65;100201.79;134203;1296;22608;-74
2023/03/18 08:55:29;;;;;;;;;;;;;;;10.21;39.46;100205.26;134237;1298;22455;-75
2023/03/18 08:58:30;;;;;;;;;;;;;;;10.41;40.30;100205.98;134209;1302;22451;-74
2023/03/18 09:01:30;;;;;;;;;;;;;;;10.65;39.91;100208.04;134201;1299;22473;-75
2023/03/18 09:04:31;;;;;;;;;;;;;;;10.90;40.45;100209.48;134238;1297;22552;-80
2023/03/18 09:07:37;;;;;;;;;;;;;;;11.12;39.33;100206.27;134243;1292;22445;-83
2023/03/18 09:10:37;;;;;;;;;;;;;;;11.00;38.36;100203.69;134214;1298;22461;-78
2023/03/18 09:13:38;;;;;;;;;;;;;;;10.97;39.17;100198.58;134223;1300;22534;-79
2023/03/18 09:16:38;;;;;;;;;;;;;;;11.09;39.60;100199.39;134064;1298;23266;-81
2023/03/18 09:19:39;;;;;;;;;;;;;;;11.13;39.22;100196.23;134234;1298;23267;-81
2023/03/18 09:22:43;;;;;;;;;;;;;;;11.20;39.58;100193.38;134263;1302;22435;-78
2023/03/18 09:25:49;;;;;;;;;;;;;;;11.42;40.02;100193.16;134278;1298;22522;-80
2023/03/18 09:28:49;;;;;;;;;;;;;;;11.73;38.51;100190.16;134120;1299;22439;-81
2023/03/18 09:31:50;;;;;;;;;;;;;;;11.93;38.62;100189.24;134282;1302;22466;-81
2023/03/18 09:34:51;;;;;;;;;;;;;;;12.00;37.47;100186.08;134317;1301;22487;-82
2023/03/18 09:37:55;;;;;;;;;;;;;;;12.00;36.74;100188.38;134246;1298;22475;-82
2023/03/18 09:41:15;;;;;;;;;;;;;;;12.12;37.50;100189.67;134252;1296;23293;-80
2023/03/18 09:44:21;;;;;;;;;;;;;;;12.19;36.07;100187.67;134226;1297;22460;-81
2023/03/18 09:47:41;;;;;;;;;;;;;;;12.16;36.12;100191.38;134212;1298;25596;-80
2023/03/18 09:51:00;;;;;;;;;;;;;;;12.28;36.20;100186.49;134288;1298;22553;-81
2023/03/18 09:54:40;;;;;;;;;;;;;;;12.51;36.48;100179.59;134088;1299;22562;-80
2023/03/18 09:57:45;;;;;;;;;;;;;;;12.63;34.95;100181.84;134296;1295;22520;-81
2023/03/18 10:00:46;;;;;;;;;;;;;;;12.65;34.65;100182.33;134287;1298;22474;-81
2023/03/18 10:03:50;;;;;;;;;;;;;;;12.61;33.82;100179.34;134296;1298;22638;-81
2023/03/18 10:07:03;;;;;;;;;;;;;;;12.55;34.29;100180.23;134345;1296;22503;-82
2023/03/18 10:10:26;;;;;;;;;;;;;;;12.66;34.44;100178.52;134184;1301;22496;-78
2023/03/18 10:13:37;;;;;;;;;;;;;;;12.67;33.79;100178.42;134318;1297;22514;-81
2023/03/18 10:16:47;;;;;;;;;;;;;;;12.70;34.70;100177.38;134282;1297;22468;-81
2023/03/18 10:19:52;;;;;;;;;;;;;;;12.83;34.87;100175.29;134278;1298;22475;-80
2023/03/18 10:23:10;;;;;;;;;;;;;;;12.98;34.47;100178.98;134115;1298;22568;-78
2023/03/18 10:26:23;;;;;;;;;;;;;;;13.12;34.06;100171.52;134242;1295;22462;-79
2023/03/18 10:29:29;;;;;;;;;;;;;;;13.19;33.97;100175.04;134194;1298;22505;-79
2023/03/18 10:32:30;;;;;;;;;;;;;;;13.28;33.42;100169.12;134260;1298;22478;-80
2023/03/18 10:35:37;;;;;;;;;;;;;;;13.24;33.76;100171.85;134262;1295;23246;-80
2023/03/18 10:38:41;;;;;;;;;;;;;;;13.36;33.52;100171.14;134301;1297;22470;-79
2023/03/18 10:41:46;;;;;;;;;;;;;;;13.47;34.02;100166.41;134189;1297;25780;-80
2023/03/18 10:44:47;;;;;;;;;;;;;;;13.78;34.51;100165.36;134206;1298;22458;-77
2023/03/18 10:48:11;;;;;;;;;;;;;;;14.02;33.91;100162.45;134281;1301;22547;-75
2023/03/18 10:51:31;;;;;;;;;;;;;;;14.05;32.92;100165.52;134375;1297;22460;-79
2023/03/18 10:54:40;;;;;;;;;;;;;;;13.86;32.99;100160.02;133991;1304;22488;-81
2023/03/18 10:57:41;;;;;;;;;;;;;;;13.85;32.81;100162.55;134311;1298;22455;-79
2023/03/18 11:00:43;;;;;;;;;;;;;;;13.85;33.26;100158.60;134321;1297;22434;-79
2023/03/18 11:03:49;;;;;;;;;;;;;;;13.92;33.55;100157.98;134360;1296;22546;-77
2023/03/18 11:07:02;;;;;;;;;;;;;;;13.86;32.97;100156.03;134224;1298;22451;-77
2023/03/18 11:10:11;;;;;;;;;;;;;;;13.79;33.10;100154.02;134314;1298;22408;-81
2023/03/18 11:13:19;;;;;;;;;;;;;;;13.82;33.11;100155.78;134354;1296;23078;-80
2023/03/18 11:16:28;;;;;;;;;;;;;;;13.81;32.71;100154.49;134374;1297;22437;-79
2023/03/18 11:19:31;;;;;;;;;;;;;;;13.83;32.73;100148.31;134359;1296;22444;-76
2023/03/18 11:22:33;;;;;;;;;;;;;;;13.95;33.62;100147.06;134322;1297;22518;-81
2023/03/18 11:25:34;;;;;;;;;;;;;;;14.19;33.84;100140.60;134305;1298;22533;-77
2023/03/18 11:28:40;;;;;;;;;;;;;;;14.47;33.86;100143.75;134151;1296;22496;-76
2023/03/18 11:31:53;;;;;;;;;;;;;;;14.69;33.64;100135.98;134304;1297;23142;-77
2023/03/18 11:34:56;;;;;;;;;;;;;;;14.91;33.58;100132.83;134174;1298;22562;-77
2023/03/18 11:38:00;;;;;;;;;;;;;;;15.02;33.57;100127.23;134180;1298;22447;-77
2023/03/18 11:41:08;;;;;;;;;;;;;;;15.02;33.05;100122.43;134148;1295;23168;-74
2023/03/18 11:44:22;;;;;;;;;;;;;;;14.96;33.13;100123.41;134286;1296;22551;-75
2023/03/18 11:47:27;;;;;;;;;;;;;;;14.88;33.11;100114.30;134261;1297;23508;-79
2023/03/18 11:50:32;;;;;;;;;;;;;;;14.89;33.09;100113.78;134263;1297;22507;-78
2023/03/18 11:53:52;;;;;;;;;;;;;;;14.80;32.62;100114.88;134330;1297;22449;-77
2023/03/18 11:56:52;;;;;;;;;;;;;;;14.61;32.28;100115.59;134373;1297;22488;-78
2023/03/18 11:59:53;;;;;;;;;;;;;;;14.47;32.30;100112.11;134333;1298;22431;-78
2023/03/18 12:03:12;;;;;;;;;;;;;;;14.59;33.54;100110.59;134290;1297;22513;-78
2023/03/18 12:06:15;;;;;;;;;;;;;;;14.93;33.34;100106.45;134118;1297;22500;-79
2023/03/18 12:09:24;;;;;;;;;;;;;;;15.09;33.55;100106.08;134125;1296;22578;-79
2023/03/18 12:12:39;;;;;;;;;;;;;;;15.23;32.62;100104.88;134321;1297;22416;-79
2023/03/18 12:15:46;;;;;;;;;;;;;;;15.09;32.17;100106.36;134281;1298;22474;-79
2023/03/18 12:18:57;;;;;;;;;;;;;;;15.09;32.60;100101.98;134281;1297;22480;-79
2023/03/18 12:22:01;;;;;;;;;;;;;;;15.08;32.18;100095.49;134293;1295;22442;-77
2023/03/18 12:25:11;;;;;;;;;;;;;;;14.93;31.83;100091.09;134297;1297;22478;-78
2023/03/18 12:28:40;;;;;;;;;;;;;;;14.85;32.20;100092.84;134325;1297;22511;-78
2023/03/18 12:31:58;;;;;;;;;;;;;;;14.80;31.94;100098.81;133945;1298;23344;-78
2023/03/18 12:35:15;;;;;;;;;;;;;;;14.71;32.19;100100.80;134325;1297;22511;-79
2023/03/18 12:38:42;;;;;;;;;;;;;;;;;;;;;
2023/03/18 12:41:55;;;;;;;;;;;;;;;14.84;32.27;100097.14;134349;1297;22479;-79
2023/03/18 12:45:11;;;;;;;;;;;;;;;14.86;32.08;100098.60;134365;1298;22595;-80
2023/03/18 12:48:20;;;;;;;;;;;;;;;14.78;32.54;100103.20;134340;1296;22467;-80
2023/03/18 12:51:24;;;;;;;;;;;;;;;14.89;33.26;100103.75;134347;1297;23248;-75
2023/03/18 12:54:44;;;;;;;;;;;;;;;15.00;32.95;100103.41;134348;1298;22453;-77
2023/03/18 12:58:03;;;;;;;;;;;;;;;15.13;32.93;100099.48;134360;1297;23022;-76
2023/03/18 13:01:15;;;;;;;;;;;;;;;15.32;32.76;100097.02;134346;1298;22431;-77
2023/03/18 13:04:21;;;;;;;;;;;;;;;15.39;32.03;100097.71;134186;1303;22503;-77
2023/03/18 13:07:36;;;;;;;;;;;;;;;15.41;32.53;100097.06;134333;1296;23156;-78
2023/03/18 13:10:42;;;;;;;;;;;;;;;15.41;31.90;100094.88;134308;1298;22466;-76
2023/03/18 13:13:45;;;;;;;;;;;;;;;15.22;30.85;100098.11;134320;1296;23222;-74
2023/03/18 13:16:46;;;;;;;;;;;;;;;15.00;31.58;100100.25;134333;1296;22527;-77
2023/03/18 13:19:47;;;;;;;;;;;;;;;14.87;31.68;100098.89;134356;1289;23241;-79
2023/03/18 13:23:03;;;;;;;;;;;;;;;14.75;31.64;100097.45;134355;1281;22503;-78
2023/03/18 13:26:21;;;;;;;;;;;;;;;14.73;31.80;100096.86;134102;1298;22513;-76
2023/03/18 13:29:27;;;;;;;;;;;;;;;14.78;31.82;100092.34;134351;1296;22624;-78
2023/03/18 13:32:41;;;;;;;;;;;;;;;14.91;32.29;100092.08;134334;1296;23114;-78
2023/03/18 13:35:44;;;;;;;;;;;;;;;15.01;32.32;100097.44;134319;1297;22561;-74
2023/03/18 13:38:45;;;;;;;;;;;;;;;15.07;31.94;100097.88;134334;1296;22436;-75
2023/03/18 13:41:46;;;;;;;;;;;;;;;15.11;32.24;100094.02;134335;1297;23198;-76
2023/03/18 13:44:52;;;;;;;;;;;;;;;15.17;31.90;100088.97;134368;1297;22482;-76
2023/03/18 13:47:59;;;;;;;;;;;;;;;15.14;31.50;100097.05;134317;1296;23154;-76
2023/03/18 13:51:16;;;;;;;;;;;;;;;15.11;31.92;100091.89;134069;1299;22453;-76
2023/03/18 13:54:18;;;;;;;;;;;;;;;15.08;31.48;100086.52;134171;1297;22429;-76
2023/03/18 13:57:27;;;;;;;;;;;;;;;15.04;31.72;100087.49;134300;1296;22474;-83
2023/03/18 14:00:32;;;;;;;;;;;;;;;15.05;31.85;100091.66;134316;1297;22464;-81
2023/03/18 14:03:41;;;;;;;;;;;;;;;15.01;31.20;100089.17;134342;1296;22459;-82
2023/03/18 14:06:50;;;;;;;;;;;;;;;14.90;31.00;100090.48;134316;1296;22543;-81
2023/03/18 14:10:00;;;;;;;;;;;;;;;14.80;31.57;100087.76;134111;1298;22444;-83
2023/03/18 14:13:20;;;;;;;;;;;;;;;14.78;32.10;100094.40;134366;1296;23123;-84
2023/03/18 14:16:26;;;;;;;;;;;;;;;14.81;32.05;100091.17;134333;1296;22460;-82
2023/03/18 14:19:31;;;;;;;;;;;;;;;14.88;32.54;100086.05;134073;1298;22466;-82
2023/03/18 14:22:36;;;;;;;;;;;;;;;15.01;32.65;100081.93;134327;1297;22477;-83
2023/03/18 14:25:41;;;;;;;;;;;;;;;15.06;31.65;100077.35;134138;1296;22465;-77
2023/03/18 14:28:52;;;;;;;;;;;;;;;14.95;31.53;100075.96;134135;1298;22490;-77
2023/03/18 14:32:07;;;;;;;;;;;;;;;;;;;;;
2023/03/18 14:35:17;;;;;;;;;;;;;;;14.85;31.56;100075.98;134182;1297;22521;-76
2023/03/18 14:38:29;;;;;;;;;;;;;;;;;;;;;
2023/03/18 14:41:33;;;;;;;;;;;;;;;14.90;32.35;100075.08;134336;1297;23151;-78
2023/03/18 14:44:51;;;;;;;;;;;;;;;14.99;32.64;100070.00;134257;1295;22449;-74
2023/03/18 14:48:05;;;;;;;;;;;;;;;15.05;32.44;100064.02;134352;1296;22461;-78
2023/03/18 14:51:25;;;;;;;;;;;;;;;15.00;32.57;100069.47;134333;1291;22516;-80
2023/03/18 14:54:30;;;;;;;;;;;;;;;14.92;32.69;100065.98;134308;1297;22540;-78
2023/03/18 14:57:31;;;;;;;;;;;;;;;14.84;32.73;100067.23;134257;1296;22459;-78
2023/03/18 15:00:36;;;;;;;;;;;;;;;14.76;32.93;100066.89;134392;1289;22450;-77
2023/03/18 15:03:37;;;;;;;;;;;;;;;14.69;32.95;100063.92;134208;1298;22452;-77
2023/03/18 15:06:38;;;;;;;;;;;;;;;14.67;33.22;100068.77;134191;1298;23497;-78
2023/03/18 15:09:41;;;;;;;;;;;;;;;14.59;32.89;100066.90;134337;1296;22533;-78
2023/03/18 15:13:10;;;;;;;;;;;;;;;14.45;32.96;100069.47;134392;1295;22460;-78
2023/03/18 15:16:17;;;;;;;;;;;;;;;14.33;33.37;100070.68;134119;1298;23121;-75
2023/03/18 15:19:17;;;;;;;;;;;;;;;14.24;33.16;100070.06;134215;1298;23360;-79
2023/03/18 15:22:24;;;;;;;;;;;;;;;14.14;33.08;100073.23;134348;1293;22443;-77
2023/03/18 15:25:25;;;;;;;;;;;;;;;14.08;33.21;100074.42;134399;1295;23220;-80
2023/03/18 15:28:27;;;;;;;;;;;;;;;13.99;33.54;100075.48;134333;1297;22476;-81
2023/03/18 15:31:29;;;;;;;;;;;;;;;13.91;33.93;100075.59;134180;1298;22513;-80
2023/03/18 15:34:30;;;;;;;;;;;;;;;13.85;34.08;100072.77;134415;1296;22563;-80
2023/03/18 15:37:38;;;;;;;;;;;;;;;13.81;34.41;100074.17;134244;1296;22512;-69
2023/03/18 15:40:47;;;;;;;;;;;;;;;13.80;34.76;100076.78;134098;1299;23796;-76
2023/03/18 15:43:50;;;;;;;;;;;;;;;13.80;35.08;100078.75;134317;1296;23112;-77
2023/03/18 15:46:53;;;;;;;;;;;;;;;13.76;35.02;100085.80;134223;1297;22478;-77
2023/03/18 15:49:59;;;;;;;;;;;;;;;13.72;35.25;100089.52;134351;1295;22581;-77
2023/03/18 15:53:01;;;;;;;;;;;;;;;13.66;35.15;100093.04;134341;1296;22452;-77
2023/03/18 15:56:18;;;;;;;;;;;;;;;13.60;35.50;100093.29;134170;1297;23280;-80
2023/03/18 15:59:23;;;;;;;;;;;;;;;13.54;35.61;100092.64;134307;1298;22463;-76